Time;durP1;ratioP1;P1;durP2;ratioP2;P2;SDS_P1;SDS_P2;PMS_P1;PMS_P2;Temp;Humidity;BMP_temperature;BMP_pressure;BME280_temperature;BME280_humidity;BME280_pressure;Samples;Min_cycle;Max_cycle;Signal;HPM_P1;HPM_P2
2022/12/31 08:39:52;;;;;;;1.10;1.10;;;21.80;49.70;;;;;;5045175;27;20548;-78
2022/12/31 08:42:18;;;;;;;0.90;0.90;;;17.20;38.20;;;;;;5055869;28;20205;-79
2022/12/31 08:44:45;;;;;;;1.00;1.00;;;14.60;43.20;;;;;;5031299;28;20582;-78
2022/12/31 08:47:11;;;;;;;2.27;1.10;;;13.70;45.70;;;;;;5022078;28;20724;-71
2022/12/31 08:49:38;;;;;;;1.40;1.30;;;13.50;47.20;;;;;;5029128;28;20702;-74
2022/12/31 08:52:04;;;;;;;2.07;1.30;;;14.50;46.80;;;;;;5027379;28;20221;-76
2022/12/31 08:54:31;;;;;;;1.93;1.03;;;14.60;46.10;;;;;;5026380;28;20225;-72
2022/12/31 08:56:57;;;;;;;2.77;1.20;;;14.60;44.00;;;;;;5020896;28;20215;-71
2022/12/31 08:59:23;;;;;;;1.33;1.23;;;14.60;44.00;;;;;;5026104;28;20719;-70
2022/12/31 09:01:50;;;;;;;1.40;1.30;;;14.70;43.60;;;;;;5024038;28;20221;-71
2022/12/31 09:04:17;;;;;;;1.30;1.20;;;14.60;43.90;;;;;;5023693;28;20218;-71
2022/12/31 09:06:43;;;;;;;1.37;1.27;;;14.70;43.70;;;;;;5025483;28;20206;-71
2022/12/31 09:09:10;;;;;;;1.30;1.20;;;14.70;43.40;;;;;;5038109;28;20233;-71
2022/12/31 09:11:36;;;;;;;1.30;1.30;;;14.90;43.10;;;;;;5032605;28;20228;-70
2022/12/31 09:14:02;;;;;;;2.43;1.63;;;15.00;43.50;;;;;;5034472;28;20202;-71
2022/12/31 09:16:29;;;;;;;2.03;1.20;;;15.10;43.40;;;;;;5027035;28;20286;-71
2022/12/31 09:18:55;;;;;;;4.60;1.50;;;15.10;42.60;;;;;;5034404;28;20326;-72
2022/12/31 09:21:22;;;;;;;1.43;1.30;;;15.10;43.10;;;;;;4993154;28;20210;-71
2022/12/31 09:23:48;;;;;;;1.60;1.50;;;15.20;42.80;;;;;;5041169;28;20554;-70
2022/12/31 09:26:15;;;;;;;2.40;1.63;;;15.30;42.60;;;;;;5026104;28;20213;-71
2022/12/31 09:28:42;;;;;;;1.33;1.23;;;15.30;42.30;;;;;;5021668;28;20249;-74
2022/12/31 09:31:08;;;;;;;2.53;1.67;;;15.30;42.50;;;;;;5026091;28;20615;-75
2022/12/31 09:33:34;;;;;;;3.33;1.30;;;15.40;43.00;;;;;;5022751;28;20207;-77
2022/12/31 09:36:02;;;;;;;1.40;1.20;;;15.50;42.10;;;;;;5026082;28;20207;-68
2022/12/31 09:38:28;;;;;;;1.20;1.20;;;15.60;42.10;;;;;;5027217;28;20209;-73
2022/12/31 09:40:54;;;;;;;4.50;1.30;;;15.60;41.40;;;;;;5024452;28;20203;-71
2022/12/31 09:43:21;;;;;;;2.60;1.50;;;15.60;41.70;;;;;;5026296;28;20214;-70
2022/12/31 09:45:47;;;;;;;2.37;1.30;;;15.60;42.40;;;;;;5025802;28;20213;-71
2022/12/31 09:48:14;;;;;;;1.20;1.20;;;15.60;41.20;;;;;;5017507;28;20227;-72
2022/12/31 09:50:40;;;;;;;1.30;1.20;;;15.70;40.80;;;;;;5014978;28;20225;-73
2022/12/31 09:53:07;;;;;;;3.40;1.50;;;15.80;40.40;;;;;;4999515;28;20233;-73
2022/12/31 09:55:33;;;;;;;3.90;1.60;;;15.80;40.40;;;;;;5018618;28;20238;-73
2022/12/31 09:57:59;;;;;;;1.27;1.27;;;15.80;40.40;;;;;;4995285;28;20208;-73
2022/12/31 10:00:26;;;;;;;1.40;1.27;;;15.90;39.90;;;;;;4998706;28;20217;-75
2022/12/31 10:02:52;;;;;;;1.40;1.30;;;16.10;39.10;;;;;;5008984;28;20202;-69
2022/12/31 10:05:19;;;;;;;1.13;1.10;;;16.40;38.90;;;;;;5007394;28;20222;-70
2022/12/31 10:07:45;;;;;;;1.47;1.37;;;16.50;38.10;;;;;;5020426;28;20210;-71
2022/12/31 10:10:11;;;;;;;1.23;1.20;;;16.50;37.60;;;;;;5014089;28;20213;-69
2022/12/31 10:12:38;;;;;;;1.40;1.30;;;16.50;37.80;;;;;;5004314;28;20226;-68
2022/12/31 10:15:04;;;;;;;2.47;1.50;;;16.60;38.00;;;;;;5022642;28;20226;-74
2022/12/31 10:17:31;;;;;;;2.00;1.20;;;16.80;37.70;;;;;;5012111;28;20281;-73
2022/12/31 10:19:57;;;;;;;2.80;1.20;;;16.90;37.00;;;;;;5011985;28;20586;-72
2022/12/31 10:22:24;;;;;;;1.50;1.40;;;17.00;36.70;;;;;;5009823;28;20203;-73
2022/12/31 10:24:50;;;;;;;1.53;1.20;;;17.10;36.80;;;;;;5006267;28;20223;-70
2022/12/31 10:27:17;;;;;;;1.47;1.20;;;17.10;36.80;;;;;;5012413;28;20191;-78
2022/12/31 10:29:43;;;;;;;1.40;1.30;;;17.10;36.80;;;;;;5011110;28;20234;-69
2022/12/31 10:32:11;;;;;;;1.23;1.23;;;17.00;37.00;;;;;;5012927;28;20195;-81
2022/12/31 10:34:37;;;;;;;2.10;1.20;;;17.00;36.70;;;;;;5021472;28;20223;-83
2022/12/31 10:37:03;;;;;;;1.30;1.20;;;17.00;36.70;;;;;;5023681;28;20210;-82
2022/12/31 10:39:30;;;;;;;1.40;1.30;;;17.00;36.70;;;;;;5019022;28;20211;-83
2022/12/31 10:41:57;;;;;;;2.13;1.27;;;17.20;36.90;;;;;;5024728;28;20219;-84
2022/12/31 10:44:23;;;;;;;5.73;1.93;;;17.10;36.80;;;;;;5020647;28;20224;-83
2022/12/31 10:46:50;;;;;;;1.97;1.30;;;17.20;37.20;;;;;;5016993;28;20204;-83
2022/12/31 10:49:16;;;;;;;1.67;1.23;;;17.20;36.90;;;;;;5016364;28;20693;-83
2022/12/31 10:51:43;;;;;;;1.43;1.07;;;17.20;36.90;;;;;;5016612;28;20205;-83
2022/12/31 10:54:09;;;;;;;1.20;1.10;;;17.10;37.50;;;;;;5016006;28;20670;-83
2022/12/31 10:56:35;;;;;;;3.43;1.43;;;17.10;36.80;;;;;;5002971;28;20213;-83
2022/12/31 10:59:02;;;;;;;1.40;1.03;;;17.00;37.70;;;;;;4996080;28;20210;-82
2022/12/31 11:01:29;;;;;;;3.33;1.63;;;17.10;36.80;;;;;;5003144;28;20517;-83
2022/12/31 11:03:55;;;;;;;1.70;1.40;;;17.10;37.20;;;;;;5018905;28;20228;-83
2022/12/31 11:06:21;;;;;;;1.67;1.10;;;17.10;36.80;;;;;;5007911;28;20216;-82
2022/12/31 11:08:49;;;;;;;1.37;1.23;;;17.20;36.90;;;;;;5005676;28;20224;-84
2022/12/31 11:11:15;;;;;;;1.63;1.00;;;17.20;36.90;;;;;;5004908;28;20274;-83
2022/12/31 11:13:42;;;;;;;2.13;1.20;;;17.30;37.00;;;;;;5003759;28;20668;-82
2022/12/31 11:16:08;;;;;;;1.83;1.40;;;17.40;37.10;;;;;;5007516;28;20204;-82
2022/12/31 11:18:35;;;;;;;1.67;1.20;;;17.30;37.00;;;;;;5018248;28;20207;-82
2022/12/31 11:21:03;;;;;;;1.50;1.40;;;17.30;37.00;;;;;;5017964;28;20640;-83
2022/12/31 11:23:29;;;;;;;1.87;1.23;;;17.30;37.00;;;;;;5015985;28;20335;-83
2022/12/31 11:25:56;;;;;;;3.37;1.53;;;17.20;36.90;;;;;;5019474;28;20217;-82
2022/12/31 11:28:22;;;;;;;1.40;1.30;;;17.40;37.10;;;;;;5025349;28;20207;-83
2022/12/31 11:30:49;;;;;;;2.80;1.23;;;17.50;37.10;;;;;;5009890;28;20215;-83
2022/12/31 11:33:15;;;;;;;3.23;2.10;;;17.50;37.10;;;;;;5022767;28;20231;-82
2022/12/31 11:35:42;;;;;;;3.27;1.40;;;17.60;36.60;;;;;;5044447;28;20207;-74
2022/12/31 11:38:09;;;;;;;1.60;1.50;;;17.80;36.60;;;;;;4985851;28;20214;-69
2022/12/31 11:40:35;;;;;;;1.23;1.17;;;17.80;36.20;;;;;;4992943;28;20294;-68
2022/12/31 11:43:02;;;;;;;1.47;1.30;;;17.90;35.90;;;;;;4993179;28;20230;-73
2022/12/31 11:45:28;;;;;;;3.07;1.40;;;18.00;35.50;;;;;;4970821;28;20250;-71
2022/12/31 11:47:55;;;;;;;1.43;1.30;;;18.10;35.90;;;;;;5021582;28;20229;-68
2022/12/31 11:50:21;;;;;;;1.67;1.30;;;18.10;35.30;;;;;;4997345;28;20713;-70
2022/12/31 11:52:47;;;;;;;10.80;2.50;;;18.10;35.50;;;;;;4992902;28;20254;-74
2022/12/31 11:55:14;;;;;;;9.27;2.10;;;18.10;35.80;;;;;;4991058;28;20262;-73
2022/12/31 11:57:41;;;;;;;2.20;1.53;;;18.10;37.10;;;;;;4994360;28;20214;-73
2022/12/31 12:00:07;;;;;;;3.40;1.53;;;17.80;36.90;;;;;;4994105;28;20813;-71
2022/12/31 12:02:34;;;;;;;1.73;1.40;;;17.50;37.10;;;;;;4998631;22;20234;-73
2022/12/31 12:05:01;;;;;;;1.43;1.30;;;17.40;37.20;;;;;;4984750;28;20204;-72
2022/12/31 12:07:27;;;;;;;2.57;1.80;;;17.30;37.30;;;;;;4991165;28;20203;-71
2022/12/31 12:09:53;;;;;;;9.30;6.17;;;17.20;37.90;;;;;;4999885;28;20744;-73
2022/12/31 12:12:20;;;;;;;4.03;2.60;;;17.30;38.10;;;;;;4992653;28;20236;-72
2022/12/31 12:14:47;;;;;;;4.87;3.97;;;17.30;37.80;;;;;;4989910;28;20216;-72
2022/12/31 12:17:13;;;;;;;4.43;2.50;;;17.40;38.00;;;;;;4994722;28;20203;-73
2022/12/31 12:19:39;;;;;;;3.03;1.70;;;17.50;37.30;;;;;;4992551;28;20571;-74
2022/12/31 12:22:06;;;;;;;2.50;1.70;;;17.60;37.20;;;;;;4985930;28;20207;-74
2022/12/31 12:24:32;;;;;;;4.53;2.83;;;17.60;37.10;;;;;;4988321;28;20215;-74
2022/12/31 12:26:59;;;;;;;1.87;1.63;;;17.60;37.30;;;;;;4990484;28;20240;-74
2022/12/31 12:29:25;;;;;;;2.27;1.80;;;17.60;37.20;;;;;;4982917;28;20208;-74
2022/12/31 12:31:52;;;;;;;2.10;1.63;;;17.70;37.20;;;;;;4990295;28;20196;-74
2022/12/31 12:34:18;;;;;;;2.87;1.50;;;17.60;37.20;;;;;;4992755;28;20202;-75
2022/12/31 12:36:44;;;;;;;2.00;1.70;;;17.80;36.80;;;;;;4986959;28;20201;-74
2022/12/31 12:39:11;;;;;;;3.90;2.77;;;17.80;36.90;;;;;;4984531;28;20607;-74
2022/12/31 12:41:37;;;;;;;1.60;1.50;;;17.80;37.20;;;;;;4983046;28;20215;-74
2022/12/31 12:44:04;;;;;;;1.80;1.33;;;18.00;36.30;;;;;;4983931;28;20220;-76
2022/12/31 12:46:30;;;;;;;3.83;1.50;;;18.40;35.20;;;;;;4982285;28;20679;-76
2022/12/31 12:48:56;;;;;;;1.87;1.53;;;18.50;35.30;;;;;;4986379;28;20210;-76
2022/12/31 12:51:23;;;;;;;3.03;1.70;;;18.40;35.90;;;;;;4985407;28;20215;-75
2022/12/31 12:53:49;;;;;;;2.13;1.63;;;18.30;37.30;;;;;;4990119;28;20233;-76
2022/12/31 12:56:16;;;;;;;1.80;1.40;;;18.10;37.70;;;;;;4985028;28;20211;-76
2022/12/31 12:58:42;;;;;;;1.60;1.50;;;18.00;37.90;;;;;;4987885;28;20562;-74
2022/12/31 13:01:08;;;;;;;2.93;1.60;;;18.00;38.00;;;;;;4984999;28;20215;-75
2022/12/31 13:03:35;;;;;;;1.60;1.50;;;18.00;38.50;;;;;;4981437;28;20219;-74
2022/12/31 13:06:02;;;;;;;1.60;1.43;;;17.80;39.20;;;;;;4989180;28;20274;-74
2022/12/31 13:08:28;;;;;;;1.80;1.50;;;17.60;40.00;;;;;;4985286;28;20682;-77
2022/12/31 13:10:55;;;;;;;1.67;1.57;;;17.50;40.70;;;;;;4988898;28;20655;-74
2022/12/31 13:13:21;;;;;;;1.70;1.60;;;17.50;41.90;;;;;;4986545;28;20227;-75
2022/12/31 13:15:47;;;;;;;1.80;1.70;;;17.30;41.80;;;;;;4984711;28;20207;-75
2022/12/31 13:18:14;;;;;;;1.50;1.40;;;17.10;42.20;;;;;;4988514;28;20226;-75
2022/12/31 13:20:41;;;;;;;1.40;1.30;;;17.00;42.70;;;;;;4979246;28;20319;-74
2022/12/31 13:23:07;;;;;;;1.30;1.20;;;16.90;42.70;;;;;;4986529;28;20224;-73
2022/12/31 13:25:33;;;;;;;2.20;1.20;;;16.90;43.00;;;;;;4991547;28;20212;-86
2022/12/31 13:28:00;;;;;;;1.40;1.30;;;16.80;43.50;;;;;;4993853;28;20211;-74
2022/12/31 13:30:26;;;;;;;2.57;1.20;;;16.80;43.70;;;;;;4995744;28;20211;-76
2022/12/31 13:32:53;;;;;;;3.67;1.50;;;16.70;44.20;;;;;;4998922;28;20267;-77
2022/12/31 13:35:19;;;;;;;1.50;1.40;;;16.70;44.50;;;;;;4994744;28;20207;-78
2022/12/31 13:37:46;;;;;;;2.40;1.40;;;16.50;45.00;;;;;;4992799;28;20200;-77
2022/12/31 13:40:13;;;;;;;4.07;1.50;;;16.40;45.20;;;;;;4987402;28;20231;-77
2022/12/31 13:42:40;;;;;;;4.63;1.70;;;16.30;45.50;;;;;;4994014;28;20212;-77
2022/12/31 13:45:06;;;;;;;2.40;1.87;;;16.30;45.50;;;;;;4993014;28;20211;-77
2022/12/31 13:47:32;;;;;;;1.70;1.60;;;16.30;45.50;;;;;;4991703;28;20196;-77
2022/12/31 13:49:59;;;;;;;1.90;1.80;;;16.30;45.50;;;;;;4994139;28;20204;-77
2022/12/31 13:52:25;;;;;;;1.20;1.20;;;16.30;45.50;;;;;;5004695;28;20362;-77
2022/12/31 13:54:52;;;;;;;2.20;1.63;;;16.20;46.10;;;;;;4987715;28;20212;-77
2022/12/31 13:57:18;;;;;;;1.40;1.30;;;16.20;45.90;;;;;;4985612;28;20216;-77
2022/12/31 13:59:45;;;;;;;2.13;1.37;;;16.10;46.00;;;;;;4986537;28;20825;-77
2022/12/31 14:02:11;;;;;;;3.20;1.63;;;16.20;46.40;;;;;;4986940;28;20235;-77
2022/12/31 14:04:38;;;;;;;1.40;1.30;;;16.10;46.20;;;;;;4985904;28;20341;-76
2022/12/31 14:07:04;;;;;;;1.60;1.50;;;16.10;46.50;;;;;;4984284;28;21578;-76
2022/12/31 14:09:30;;;;;;;2.77;1.60;;;15.90;46.60;;;;;;4985962;28;20551;-77
2022/12/31 14:11:57;;;;;;;1.33;1.10;;;15.90;46.90;;;;;;4985595;28;20696;-78
2022/12/31 14:14:23;;;;;;;1.50;1.40;;;15.80;47.10;;;;;;4983028;28;20199;-77
2022/12/31 14:16:50;;;;;;;2.73;1.90;;;15.70;47.40;;;;;;4988454;28;20201;-77
2022/12/31 14:19:16;;;;;;;1.97;1.87;;;15.60;47.80;;;;;;4990275;28;20236;-78
2022/12/31 14:21:43;;;;;;;2.07;1.70;;;15.60;47.90;;;;;;4991993;28;20599;-77
2022/12/31 14:24:09;;;;;;;5.30;2.13;;;15.40;48.10;;;;;;4992277;28;20213;-76
2022/12/31 14:26:35;;;;;;;2.30;1.80;;;15.30;48.90;;;;;;4991523;28;20207;-77
2022/12/31 14:29:02;;;;;;;2.60;2.00;;;15.20;49.10;;;;;;4992630;28;20212;-76
2022/12/31 14:31:28;;;;;;;4.73;2.30;;;15.20;49.10;;;;;;4990875;28;20232;-78
2022/12/31 14:33:55;;;;;;;3.23;2.00;;;15.00;48.90;;;;;;4985738;28;20196;-77
2022/12/31 14:36:21;;;;;;;4.10;2.10;;;15.00;49.50;;;;;;4984018;28;20207;-77
2022/12/31 14:38:48;;;;;;;7.03;2.53;;;14.80;49.90;;;;;;4985370;28;20224;-77
2022/12/31 14:41:14;;;;;;;2.47;2.20;;;14.70;50.60;;;;;;4986178;28;20235;-78
2022/12/31 14:43:40;;;;;;;5.20;2.27;;;14.70;50.50;;;;;;4987364;28;20230;-78
2022/12/31 14:46:09;;;;;;;3.43;2.20;;;14.70;50.60;;;;;;4986336;28;20222;-77
2022/12/31 14:48:35;;;;;;;3.93;2.50;;;14.50;51.00;;;;;;4986039;28;20203;-78
2022/12/31 14:51:01;;;;;;;3.07;2.20;;;14.30;51.40;;;;;;4984951;28;20206;-77
2022/12/31 14:53:28;;;;;;;2.37;2.17;;;14.50;51.50;;;;;;4990665;28;20573;-78
2022/12/31 14:55:54;;;;;;;3.93;2.70;;;14.30;51.90;;;;;;4990344;28;20214;-78
2022/12/31 14:58:21;;;;;;;7.00;3.20;;;14.10;52.30;;;;;;4989308;28;20203;-77
2022/12/31 15:00:47;;;;;;;3.23;2.43;;;14.10;52.70;;;;;;4985337;28;20223;-79
2022/12/31 15:03:13;;;;;;;4.30;2.67;;;14.10;52.70;;;;;;4985751;28;20560;-74
2022/12/31 15:05:40;;;;;;;5.53;3.43;;;13.90;53.30;;;;;;4989020;28;20217;-75
2022/12/31 15:08:06;;;;;;;4.03;3.50;;;13.70;54.20;;;;;;4992054;28;20228;-76
2022/12/31 15:10:33;;;;;;;9.87;3.87;;;13.60;54.70;;;;;;4993328;28;20207;-76
2022/12/31 15:12:59;;;;;;;5.20;3.30;;;13.50;55.70;;;;;;4989967;28;20222;-76
2022/12/31 15:15:28;;;;;;;4.20;3.20;;;13.30;55.80;;;;;;4987007;28;20702;-76
2022/12/31 15:17:54;;;;;;;5.73;3.53;;;13.20;56.30;;;;;;4992775;28;20220;-76
2022/12/31 15:20:21;;;;;;;5.70;3.10;;;13.20;56.30;;;;;;4989972;28;20306;-76
2022/12/31 15:22:48;;;;;;;4.53;3.27;;;13.10;56.30;;;;;;4958549;28;20715;-76
2022/12/31 15:25:14;;;;;;;5.97;3.20;;;13.10;56.80;;;;;;4983234;28;20208;-75
2022/12/31 15:27:41;;;;;;;6.77;3.20;;;12.90;57.50;;;;;;4990680;28;20208;-75
2022/12/31 15:30:07;;;;;;;3.20;2.90;;;12.70;57.90;;;;;;4990865;28;20262;-74
2022/12/31 15:32:34;;;;;;;3.53;2.87;;;12.50;59.20;;;;;;4990860;28;20219;-75
2022/12/31 15:35:00;;;;;;;7.60;3.30;;;12.50;58.80;;;;;;4996614;28;20205;-82
2022/12/31 15:37:27;;;;;;;2.77;2.50;;;12.40;59.70;;;;;;4990565;28;20206;-89
2022/12/31 15:39:53;;;;;;;3.07;2.80;;;12.40;59.50;;;;;;4996046;28;20230;-90
2022/12/31 15:42:19;;;;;;;4.50;2.90;;;12.40;59.90;;;;;;4992863;28;20233;-91
2022/12/31 15:44:46;;;;;;;3.80;2.67;;;12.30;59.90;;;;;;4987729;28;20211;-82
2022/12/31 15:47:12;;;;;;;6.03;3.73;;;12.00;60.50;;;;;;4988397;28;20827;-77
2022/12/31 15:49:39;;;;;;;8.37;3.80;;;11.90;61.80;;;;;;4990295;28;20226;-72
2022/12/31 15:52:05;;;;;;;5.77;3.80;;;11.90;62.40;;;;;;4989701;28;20235;-67
2022/12/31 15:54:32;;;;;;;5.70;3.90;;;11.90;62.20;;;;;;4989140;28;20662;-71
2022/12/31 15:56:58;;;;;;;5.50;4.00;;;11.70;62.90;;;;;;4990785;28;20208;-74
2022/12/31 15:59:25;;;;;;;5.33;4.07;;;11.60;63.20;;;;;;4993404;28;20217;-80
2022/12/31 16:01:51;;;;;;;5.70;3.97;;;11.50;64.90;;;;;;4989888;28;20227;-68
2022/12/31 16:04:17;;;;;;;5.53;4.80;;;11.40;65.10;;;;;;5000957;28;20209;-73
2022/12/31 16:06:44;;;;;;;6.60;4.50;;;11.40;65.30;;;;;;4994332;28;20199;-72
2022/12/31 16:09:10;;;;;;;6.00;4.83;;;11.30;65.70;;;;;;4990086;28;20296;-77
2022/12/31 16:11:37;;;;;;;9.97;5.20;;;11.40;66.20;;;;;;4993881;28;20241;-73
2022/12/31 16:14:03;;;;;;;7.47;5.90;;;11.40;65.60;;;;;;4993117;28;20211;-79
2022/12/31 16:16:30;;;;;;;7.73;5.67;;;11.50;66.00;;;;;;4992023;28;20226;-73
2022/12/31 16:18:56;;;;;;;7.07;6.13;;;11.50;64.50;;;;;;4989985;28;20235;-68
2022/12/31 16:21:23;;;;;;;7.90;5.03;;;11.40;65.30;;;;;;4990054;28;20600;-73
2022/12/31 16:23:49;;;;;;;8.50;6.17;;;11.30;66.00;;;;;;4991234;28;20209;-75
2022/12/31 16:26:16;;;;;;;9.97;5.80;;;11.30;65.70;;;;;;4990984;28;20203;-73
2022/12/31 16:28:42;;;;;;;8.37;5.57;;;11.30;66.10;;;;;;4988140;28;20209;-73
2022/12/31 16:31:08;;;;;;;9.10;6.13;;;11.30;66.10;;;;;;4990416;28;20591;-75
2022/12/31 16:33:35;;;;;;;6.73;5.07;;;11.30;66.60;;;;;;4989605;28;20206;-74
2022/12/31 16:36:01;;;;;;;7.83;5.97;;;11.30;66.30;;;;;;4988289;28;20215;-73
2022/12/31 16:38:28;;;;;;;9.10;6.57;;;11.50;65.80;;;;;;4989015;28;20202;-73
2022/12/31 16:40:54;;;;;;;10.83;6.23;;;11.70;65.20;;;;;;4993255;28;20549;-73
2022/12/31 16:43:20;;;;;;;10.50;7.20;;;11.50;65.20;;;;;;4992099;28;20215;-72
2022/12/31 16:45:47;;;;;;;8.73;6.40;;;11.30;65.80;;;;;;4989544;28;20204;-72
2022/12/31 16:48:13;;;;;;;10.10;6.70;;;11.20;65.50;;;;;;4983058;28;20213;-72
2022/12/31 16:50:40;;;;;;;8.93;6.90;;;11.30;65.80;;;;;;4992058;28;20624;-72
2022/12/31 16:53:06;;;;;;;9.60;6.43;;;11.30;65.70;;;;;;4990377;28;20203;-73
2022/12/31 16:55:33;;;;;;;8.70;6.50;;;11.10;67.20;;;;;;4989504;28;20758;-72
2022/12/31 16:57:59;;;;;;;10.10;6.90;;;11.00;67.20;;;;;;4992903;28;20200;-73
2022/12/31 17:00:25;;;;;;;14.57;6.63;;;10.90;67.50;;;;;;4988611;28;20235;-72
2022/12/31 17:02:52;;;;;;;12.43;8.37;;;10.80;67.80;;;;;;4993584;28;20222;-73
2022/12/31 17:05:18;;;;;;;12.63;7.13;;;10.80;68.80;;;;;;4990461;28;20649;-74
2022/12/31 17:07:45;;;;;;;11.37;7.07;;;10.90;68.60;;;;;;4994065;28;20207;-73
2022/12/31 17:10:11;;;;;;;11.43;7.77;;;11.10;66.80;;;;;;4993324;28;20206;-74
2022/12/31 17:12:38;;;;;;;8.57;7.20;;;11.00;66.50;;;;;;4993628;28;20234;-73
2022/12/31 17:15:04;;;;;;;9.00;7.30;;;10.90;66.60;;;;;;4996853;28;20213;-74
2022/12/31 17:17:31;;;;;;;13.37;8.33;;;10.80;66.90;;;;;;4993921;28;20198;-69
2022/12/31 17:19:58;;;;;;;11.47;7.87;;;10.80;66.90;;;;;;4992286;28;20207;-71
2022/12/31 17:22:24;;;;;;;15.10;9.00;;;10.70;67.00;;;;;;4991002;28;20208;-73
2022/12/31 17:24:51;;;;;;;16.53;11.37;;;10.80;67.10;;;;;;4991407;28;20206;-74
2022/12/31 17:27:17;;;;;;;13.93;10.13;;;10.90;67.10;;;;;;4994911;28;20221;-74
2022/12/31 17:29:44;;;;;;;17.30;12.73;;;10.90;65.40;;;;;;4993162;28;20213;-74
2022/12/31 17:32:10;;;;;;;15.77;12.00;;;10.80;66.00;;;;;;4997455;28;20220;-73
2022/12/31 17:34:36;;;;;;;16.17;11.63;;;11.00;65.50;;;;;;4990934;28;20226;-73
2022/12/31 17:37:03;;;;;;;18.93;12.87;;;11.20;64.20;;;;;;4989355;28;20210;-73
2022/12/31 17:39:29;;;;;;;20.07;12.70;;;11.00;63.80;;;;;;4995239;28;20219;-79
2022/12/31 17:41:56;;;;;;;14.23;11.13;;;11.10;64.60;;;;;;4994217;28;20313;-83
2022/12/31 17:44:22;;;;;;;16.67;12.10;;;11.00;64.20;;;;;;4985115;28;20206;-82
2022/12/31 17:46:48;;;;;;;14.07;11.67;;;11.00;64.00;;;;;;4969481;28;20207;-83
2022/12/31 17:49:15;;;;;;;14.70;11.77;;;11.00;63.90;;;;;;4988101;28;20301;-84
2022/12/31 17:51:41;;;;;;;13.97;11.40;;;10.90;64.10;;;;;;4984223;28;20235;-84
2022/12/31 17:54:08;;;;;;;13.03;10.67;;;10.90;64.00;;;;;;4987490;28;20205;-82
2022/12/31 17:56:34;;;;;;;14.63;11.13;;;10.90;63.30;;;;;;4985820;28;20207;-75
2022/12/31 17:59:01;;;;;;;15.30;11.20;;;11.00;62.60;;;;;;4984740;28;20875;-74
2022/12/31 18:01:27;;;;;;;19.13;11.43;;;11.00;62.50;;;;;;4993020;28;20693;-75
2022/12/31 18:03:55;;;;;;;12.77;10.63;;;11.00;63.40;;;;;;4991143;28;20202;-75
2022/12/31 18:06:22;;;;;;;19.13;12.10;;;11.00;63.40;;;;;;4992304;28;20277;-74
2022/12/31 18:08:48;;;;;;;14.20;11.77;;;10.80;63.60;;;;;;4992376;28;20711;-75
2022/12/31 18:11:15;;;;;;;15.23;11.30;;;10.90;63.30;;;;;;4992306;28;20314;-75
2022/12/31 18:13:41;;;;;;;20.13;12.50;;;10.80;63.40;;;;;;4981300;28;20217;-77
2022/12/31 18:16:08;;;;;;;18.30;12.13;;;10.80;64.00;;;;;;4990484;28;20218;-75
2022/12/31 18:18:38;;;;;;;18.50;11.53;;;10.80;63.90;;;;;;4990571;28;20310;-75
2022/12/31 18:21:05;;;;;;;16.57;11.37;;;10.70;63.60;;;;;;4985112;28;20241;-74
2022/12/31 18:23:31;;;;;;;14.03;10.93;;;10.80;63.20;;;;;;4953462;28;20370;-75
2022/12/31 18:25:58;;;;;;;17.47;12.60;;;10.80;63.20;;;;;;4969301;28;20304;-75
2022/12/31 18:28:24;;;;;;;20.53;13.07;;;10.80;63.80;;;;;;4979760;28;20213;-74
2022/12/31 18:30:50;;;;;;;14.77;12.30;;;10.80;63.20;;;;;;4991572;28;20235;-77
2022/12/31 18:33:21;;;;;;;17.17;12.20;;;10.90;62.30;;;;;;4990450;28;20210;-76
2022/12/31 18:35:47;;;;;;;14.07;12.30;;;10.80;63.00;;;;;;4989636;28;20209;-76
2022/12/31 18:38:14;;;;;;;17.33;12.73;;;10.60;63.70;;;;;;4993112;28;20293;-76
2022/12/31 18:40:43;;;;;;;17.17;12.90;;;10.60;63.30;;;;;;4991187;28;20240;-76
2022/12/31 18:43:09;;;;;;;14.93;12.30;;;10.60;63.60;;;;;;4990886;28;20687;-76
2022/12/31 18:45:36;;;;;;;15.43;13.43;;;10.60;63.50;;;;;;4992586;28;20237;-77
2022/12/31 18:48:02;;;;;;;20.93;14.70;;;10.80;62.70;;;;;;4991844;28;20312;-76
2022/12/31 18:50:29;;;;;;;15.77;13.57;;;10.60;63.00;;;;;;4988169;28;20225;-76
2022/12/31 18:52:55;;;;;;;19.23;14.70;;;10.80;60.30;;;;;;4992444;28;20205;-76
2022/12/31 18:55:22;;;;;;;17.77;13.57;;;10.90;60.20;;;;;;4991545;28;20199;-76
2022/12/31 18:57:48;;;;;;;17.97;13.27;;;10.80;59.90;;;;;;4999787;28;20282;-76
2022/12/31 19:00:15;;;;;;;14.40;11.17;;;11.00;56.30;;;;;;4986357;28;20584;-77
2022/12/31 19:02:41;;;;;;;12.63;10.63;;;11.30;55.00;;;;;;4993600;28;20217;-76
2022/12/31 19:05:07;;;;;;;15.00;11.90;;;11.50;54.20;;;;;;4992858;28;20214;-76
2022/12/31 19:07:34;;;;;;;12.90;9.97;;;11.30;54.00;;;;;;4995590;28;20201;-76
2022/12/31 19:10:00;;;;;;;13.50;10.20;;;11.20;54.60;;;;;;4986939;28;20225;-76
2022/12/31 19:12:27;;;;;;;12.13;10.43;;;11.10;54.70;;;;;;4984493;28;20210;-76
2022/12/31 19:14:53;;;;;;;15.70;12.20;;;11.00;55.10;;;;;;4995050;28;20202;-76
2022/12/31 19:17:20;;;;;;;15.97;10.77;;;10.80;56.00;;;;;;4995412;28;20211;-76
2022/12/31 19:19:46;;;;;;;14.17;10.87;;;10.80;56.00;;;;;;4992076;28;20229;-76
2022/12/31 19:22:13;;;;;;;13.80;10.67;;;11.40;53.90;;;;;;4991557;28;20290;-76
2022/12/31 19:24:39;;;;;;;14.67;11.70;;;11.60;53.00;;;;;;4988918;28;20555;-76
2022/12/31 19:27:06;;;;;;;14.60;12.73;;;11.40;53.30;;;;;;4984428;28;20209;-75
2022/12/31 19:29:32;;;;;;;18.77;13.70;;;11.30;54.10;;;;;;4988534;28;20236;-76
2022/12/31 19:32:00;;;;;;;14.73;12.13;;;11.30;54.10;;;;;;5001229;28;20216;-76
2022/12/31 19:34:27;;;;;;;17.77;13.93;;;11.20;54.50;;;;;;4987733;28;20208;-75
2022/12/31 19:36:53;;;;;;;17.43;13.60;;;11.00;55.00;;;;;;4974495;28;20302;-76
2022/12/31 19:39:20;;;;;;;16.53;13.67;;;11.00;55.30;;;;;;4984415;28;20227;-75
2022/12/31 19:41:46;;;;;;;19.80;13.17;;;10.90;55.00;;;;;;4996109;28;20230;-76
2022/12/31 19:44:13;;;;;;;15.50;10.60;;;10.90;54.40;;;;;;4994504;28;22385;-76
2022/12/31 19:46:39;;;;;;;16.20;11.23;;;11.10;52.60;;;;;;4984766;28;20221;-77
2022/12/31 19:49:06;;;;;;;11.23;9.50;;;11.00;52.60;;;;;;4969896;28;20211;-76
2022/12/31 19:51:32;;;;;;;12.60;9.07;;;11.00;52.40;;;;;;4960253;28;20215;-75
2022/12/31 19:53:59;;;;;;;16.20;10.67;;;11.00;52.00;;;;;;4985947;28;20257;-76
2022/12/31 19:56:26;;;;;;;10.97;8.93;;;10.80;52.60;;;;;;4990501;28;20617;-76
2022/12/31 19:58:53;;;;;;;16.13;11.27;;;10.70;52.80;;;;;;4991175;28;20202;-75
2022/12/31 20:01:19;;;;;;;14.37;10.13;;;10.50;54.40;;;;;;4980715;28;20575;-74
2022/12/31 20:03:46;;;;;;;11.53;9.40;;;10.50;53.90;;;;;;4992086;28;21804;-75
2022/12/31 20:06:12;;;;;;;10.50;9.00;;;10.50;53.70;;;;;;4990309;28;20216;-75
2022/12/31 20:08:42;;;;;;;11.30;9.50;;;10.60;53.10;;;;;;4993230;28;20218;-76
2022/12/31 20:11:08;;;;;;;10.10;9.07;;;10.70;52.60;;;;;;4994661;28;20225;-76
2022/12/31 20:13:35;;;;;;;16.37;10.63;;;10.80;52.20;;;;;;4992426;28;20203;-76
2022/12/31 20:16:01;;;;;;;13.80;11.40;;;10.60;53.50;;;;;;4991639;28;20263;-77
2022/12/31 20:18:27;;;;;;;12.67;10.73;;;10.70;53.40;;;;;;4993068;28;20214;-76
2022/12/31 20:20:54;;;;;;;14.87;12.60;;;10.70;53.30;;;;;;4993290;28;20241;-76
2022/12/31 20:23:20;;;;;;;17.40;12.60;;;10.70;54.10;;;;;;4990630;28;20292;-76
2022/12/31 20:25:47;;;;;;;20.37;15.07;;;10.60;54.60;;;;;;4988308;28;20701;-77
2022/12/31 20:28:13;;;;;;;16.43;14.10;;;10.60;55.40;;;;;;4988164;28;20844;-76
2022/12/31 20:30:40;;;;;;;18.50;14.43;;;10.50;56.70;;;;;;4979399;28;20241;-75
2022/12/31 20:33:06;;;;;;;20.73;14.37;;;10.60;57.00;;;;;;4995747;28;20241;-76
2022/12/31 20:35:33;;;;;;;19.80;15.23;;;10.50;57.30;;;;;;4981402;28;20647;-75
2022/12/31 20:37:59;;;;;;;21.63;14.63;;;10.50;57.80;;;;;;4975187;28;20206;-76
2022/12/31 20:40:26;;;;;;;19.57;15.27;;;10.40;58.20;;;;;;4990966;28;20229;-77
2022/12/31 20:42:52;;;;;;;19.00;15.67;;;10.30;58.20;;;;;;4991520;28;20241;-76
2022/12/31 20:45:18;;;;;;;18.27;15.27;;;10.20;59.20;;;;;;4987556;28;20571;-76
2022/12/31 20:47:45;;;;;;;19.50;16.53;;;10.10;59.50;;;;;;4989169;28;20209;-76
2022/12/31 20:50:11;;;;;;;21.40;16.63;;;10.00;60.40;;;;;;4990291;28;20229;-76
2022/12/31 20:52:38;;;;;;;18.47;14.80;;;10.00;60.20;;;;;;4983654;28;20217;-76
2022/12/31 20:55:05;;;;;;;19.80;16.17;;;10.10;60.00;;;;;;4990368;28;20231;-76
2022/12/31 20:57:31;;;;;;;19.23;15.47;;;10.20;59.70;;;;;;5003905;28;20240;-76
2022/12/31 20:59:58;;;;;;;21.20;16.03;;;10.30;60.10;;;;;;4988780;28;20224;-76
2022/12/31 21:02:24;;;;;;;24.93;16.50;;;10.40;59.30;;;;;;4985303;28;20239;-75
2022/12/31 21:04:51;;;;;;;20.67;16.17;;;10.40;58.30;;;;;;4988564;28;20211;-76
2022/12/31 21:07:17;;;;;;;17.57;14.20;;;10.40;58.20;;;;;;4988490;28;20259;-77
2022/12/31 21:09:43;;;;;;;17.23;14.03;;;10.40;58.60;;;;;;4988601;28;20324;-76
2022/12/31 21:14:54;;;;;;;21.30;16.47;;;10.30;58.70;;;;;;4993381;28;20206;-74
2022/12/31 21:17:20;;;;;;;20.67;16.43;;;10.20;58.70;;;;;;4982740;28;20208;-75